Time;durP1;ratioP1;P1;durP2;ratioP2;P2;SDS_P1;SDS_P2;PMS_P1;PMS_P2;Temp;Humidity;BMP_temperature;BMP_pressure;BME280_temperature;BME280_humidity;BME280_pressure;Samples;Min_cycle;Max_cycle;Signal;HPM_P1;HPM_P2
2022/03/15 00:01:12;;;;;;;2.17;2.07;;;;;;;-3.26;87.26;93890.97;4977649;28;20475;-78
2022/03/15 00:03:39;;;;;;;2.17;2.17;;;;;;;-3.48;87.45;93884.56;4977457;28;20449;-78
2022/03/15 00:06:07;;;;;;;2.10;2.00;;;;;;;-3.08;87.01;93935.97;4976646;28;20585;-78
2022/03/15 00:08:34;;;;;;;2.27;2.17;;;;;;;-3.11;87.25;93925.19;4977543;28;20203;-77
2022/03/15 00:11:05;;;;;;;1.37;1.00;;;;;;;-3.15;86.34;93906.09;4976834;28;20466;-78
2022/03/15 00:13:38;;;;;;;1.30;1.30;;;;;;;-2.93;86.26;93948.78;4977033;28;20576;-77
2022/03/15 00:16:07;;;;;;;1.40;1.40;;;;;;;-3.29;86.75;93894.97;4977729;28;20486;-77
2022/03/15 00:18:34;;;;;;;1.30;1.30;;;;;;;-3.19;86.66;93927.41;4976670;28;20564;-78
2022/03/15 00:21:04;;;;;;;1.63;1.63;;;;;;;-3.40;87.51;93897.97;4976352;28;20682;-78
2022/03/15 00:23:32;;;;;;;3.50;2.03;;;;;;;-2.94;86.77;93952.06;4977725;28;20459;-77
2022/03/15 00:26:01;;;;;;;1.10;1.10;;;;;;;-3.11;87.10;93940.00;4975016;28;20618;-78
2022/03/15 00:28:29;;;;;;;0.73;0.73;;;;;;;-3.32;87.98;93910.53;4976123;28;20578;-78
2022/03/15 00:30:59;;;;;;;1.67;1.27;;;;;;;-2.99;86.70;93948.63;4976403;28;20203;-78
2022/03/15 00:33:26;;;;;;;1.10;1.10;;;;;;;-3.16;87.17;93907.75;4957887;28;20450;-78
2022/03/15 00:35:55;;;;;;;1.50;1.50;;;;;;;-3.46;85.84;93840.16;4962427;28;20599;-78
2022/03/15 00:38:24;;;;;;;1.80;1.80;;;;;;;-3.25;86.56;93857.22;4976404;28;20507;-77
2022/03/15 00:40:51;;;;;;;1.30;1.30;;;;;;;-3.29;85.55;93843.09;4975649;28;20555;-78
2022/03/15 00:43:19;;;;;;;0.97;0.97;;;;;;;-2.94;85.99;93928.97;4976471;28;20619;-78
2022/03/15 00:45:46;;;;;;;2.33;2.00;;;;;;;-3.30;87.15;93885.88;4984160;28;20572;-79
2022/03/15 00:48:15;;;;;;;1.40;1.40;;;;;;;-3.49;87.81;93877.09;4989028;28;20661;-78
2022/03/15 00:50:42;;;;;;;1.80;1.73;;;;;;;-3.24;87.99;93928.91;4988661;28;20234;-79
2022/03/15 00:53:11;;;;;;;1.37;1.37;;;;;;;-3.29;89.11;93919.69;4989449;28;20589;-78
2022/03/15 00:55:39;;;;;;;0.93;0.93;;;;;;;-3.98;89.25;93806.50;4984455;28;20219;-78
2022/03/15 00:58:07;;;;;;;1.10;1.10;;;;;;;-3.94;88.40;93823.09;4981681;28;20469;-78
2022/03/15 01:00:35;;;;;;;0.90;0.90;;;;;;;-4.02;88.88;93814.63;4978808;28;20579;-79
2022/03/15 01:03:02;;;;;;;0.90;0.90;;;;;;;-3.95;88.68;93830.47;4977695;28;20585;-79
2022/03/15 01:05:32;;;;;;;0.80;0.80;;;;;;;-3.27;87.62;93904.13;4976448;28;20640;-79
2022/03/15 01:08:00;;;;;;;1.53;1.53;;;;;;;-3.55;87.74;93867.88;4976025;28;20489;-79
2022/03/15 01:10:28;;;;;;;1.40;1.40;;;;;;;-4.01;88.09;93806.44;4975938;28;20465;-79
2022/03/15 01:12:56;;;;;;;0.70;0.70;;;;;;;-3.44;87.39;93897.84;4976693;28;20194;-79
2022/03/15 01:15:24;;;;;;;1.37;1.33;;;;;;;-3.50;88.02;93881.22;4975359;28;20618;-79
2022/03/15 01:17:52;;;;;;;1.90;1.90;;;;;;;-3.50;87.99;93898.50;4975820;28;20472;-79
2022/03/15 01:20:19;;;;;;;1.10;1.10;;;;;;;-4.00;87.44;93810.56;4977674;28;20212;-78
2022/03/15 01:22:48;;;;;;;1.00;1.00;;;;;;;-3.68;86.19;93835.38;4973950;28;20668;-79
2022/03/15 01:25:16;;;;;;;1.20;1.20;;;;;;;-3.57;85.33;93843.94;4967411;28;20496;-78
2022/03/15 01:27:43;;;;;;;1.10;1.10;;;;;;;-3.35;86.55;93885.75;4975679;28;20567;-79
2022/03/15 01:30:11;;;;;;;2.40;2.20;;;;;;;-3.90;88.27;93822.41;4975518;28;20495;-78
2022/03/15 01:32:38;;;;;;;1.77;1.77;;;;;;;-3.71;87.39;93830.34;4975815;28;20574;-79
2022/03/15 01:35:07;;;;;;;1.80;1.80;;;;;;;-4.08;87.70;93808.66;4975736;28;20335;-78
2022/03/15 01:37:35;;;;;;;1.67;1.57;;;;;;;-4.01;87.63;93847.53;4977600;28;20601;-78
2022/03/15 01:40:06;;;;;;;0.70;0.70;;;;;;;-3.83;88.27;93892.53;4979835;28;20558;-78
2022/03/15 01:42:33;;;;;;;1.17;1.17;;;;;;;-4.38;88.85;93826.63;4980724;28;20571;-79
2022/03/15 01:45:03;;;;;;;1.43;1.43;;;;;;;-4.10;90.35;93885.09;4979558;28;20582;-79
2022/03/15 01:47:32;;;;;;;1.80;1.80;;;;;;;-4.47;90.51;93843.59;4976091;28;20581;-79
2022/03/15 01:49:59;;;;;;;1.37;1.37;;;;;;;-4.46;90.52;93827.19;4971880;28;20689;-79
2022/03/15 01:52:27;;;;;;;1.07;1.07;;;;;;;-3.83;89.25;93908.16;4979471;28;20503;-79
2022/03/15 01:54:54;;;;;;;1.40;1.40;;;;;;;-4.00;90.19;93862.38;4979331;28;20667;-79
2022/03/15 01:57:23;;;;;;;1.80;1.80;;;;;;;-4.28;90.19;93806.41;4979106;28;20559;-79
2022/03/15 01:59:51;;;;;;;1.17;1.17;;;;;;;-4.04;90.60;93845.81;4978932;28;20452;-79
2022/03/15 02:02:19;;;;;;;1.70;1.10;;;;;;;-3.96;90.32;93849.38;4978966;28;20589;-79
2022/03/15 02:04:46;;;;;;;0.90;0.90;;;;;;;-3.73;89.42;93906.84;4979064;28;20640;-79
2022/03/15 02:07:14;;;;;;;0.70;0.70;;;;;;;-4.41;88.97;93806.81;4979250;28;20220;-79
2022/03/15 02:09:42;;;;;;;4.33;1.43;;;;;;;-4.00;89.72;93893.66;4979744;28;20453;-78
2022/03/15 02:12:10;;;;;;;1.83;1.83;;;;;;;-4.50;89.49;93801.56;4979455;28;20540;-79
2022/03/15 02:14:39;;;;;;;1.50;1.50;;;;;;;-4.16;88.82;93870.09;4978796;28;20285;-79
2022/03/15 02:17:07;;;;;;;1.30;1.30;;;;;;;-4.13;88.01;93861.97;4979016;28;20573;-79
2022/03/15 02:19:37;;;;;;;0.97;0.97;;;;;;;-3.95;88.71;93931.63;4978968;28;20695;-79
2022/03/15 02:22:06;;;;;;;1.30;1.30;;;;;;;-3.82;88.37;93928.75;4979761;28;20668;-79
2022/03/15 02:24:34;;;;;;;1.57;1.57;;;;;;;-4.02;87.32;93885.34;4978503;28;20532;-79
2022/03/15 02:27:04;;;;;;;2.07;1.97;;;;;;;-4.17;86.23;93875.84;4979400;28;20481;-79
2022/03/15 02:29:33;;;;;;;2.23;2.23;;;;;;;-3.88;87.46;93931.88;4978942;28;20566;-79
2022/03/15 02:32:00;;;;;;;1.60;1.60;;;;;;;-4.56;87.84;93838.34;4979737;28;20542;-79
2022/03/15 02:34:28;;;;;;;1.70;1.70;;;;;;;-4.03;88.97;93945.34;4978752;28;20460;-79
2022/03/15 02:36:57;;;;;;;1.10;1.10;;;;;;;-3.92;88.57;93956.41;4979392;28;20229;-79
2022/03/15 02:39:26;;;;;;;1.17;1.17;;;;;;;-4.27;88.06;93914.16;4978630;28;20480;-79
2022/03/15 02:41:54;;;;;;;1.10;1.10;;;;;;;-4.52;87.78;93876.28;4984546;28;20202;-80
2022/03/15 02:44:23;;;;;;;1.17;1.17;;;;;;;-4.79;88.24;93846.63;4991288;28;20528;-79
2022/03/15 02:46:51;;;;;;;1.70;1.70;;;;;;;-4.76;88.50;93869.75;4992308;28;20600;-79
2022/03/15 02:49:19;;;;;;;1.60;1.60;;;;;;;-4.30;89.56;93942.81;4991251;28;20240;-79
2022/03/15 02:51:46;;;;;;;2.10;1.87;;;;;;;-4.27;89.41;93936.34;4986286;28;20589;-79
2022/03/15 02:54:14;;;;;;;4.57;1.30;;;;;;;-4.38;89.85;93917.03;4982828;28;20535;-79
2022/03/15 02:56:44;;;;;;;0.83;0.83;;;;;;;-4.25;88.85;93938.88;4981133;28;20312;-79
2022/03/15 02:59:14;;;;;;;2.00;1.90;;;;;;;-4.75;88.73;93880.44;4980358;28;20565;-79
2022/03/15 03:01:41;;;;;;;2.40;2.27;;;;;;;-4.89;88.15;93847.09;4979401;28;20566;-79
2022/03/15 03:04:10;;;;;;;1.53;1.50;;;;;;;-5.18;88.88;93809.16;4978233;28;20580;-79
2022/03/15 03:06:38;;;;;;;0.97;0.97;;;;;;;-4.68;88.65;93878.25;4978334;28;20472;-80
2022/03/15 03:09:05;;;;;;;1.07;1.07;;;;;;;-4.92;89.90;93852.78;4978191;28;21051;-79
2022/03/15 03:11:33;;;;;;;2.00;2.00;;;;;;;-5.27;89.73;93774.34;4977608;28;20545;-80
2022/03/15 03:14:02;;;;;;;0.90;0.90;;;;;;;-4.50;90.34;93882.94;4977765;28;20571;-79
2022/03/15 03:16:29;;;;;;;3.70;1.23;;;;;;;-5.20;89.56;93777.09;4978555;28;20259;-79
2022/03/15 03:18:58;;;;;;;0.80;0.80;;;;;;;-5.02;88.10;93794.97;4977849;28;20575;-80
2022/03/15 03:21:27;;;;;;;1.60;0.80;;;;;;;-4.78;88.40;93863.91;4977230;28;20636;-80
2022/03/15 03:23:56;;;;;;;1.20;1.20;;;;;;;-4.57;88.20;93893.41;4977073;28;20686;-81
2022/03/15 03:26:25;;;;;;;4.30;1.80;;;;;;;-5.25;89.26;93788.41;4977602;28;20295;-79
2022/03/15 03:28:52;;;;;;;1.30;1.30;;;;;;;-4.83;88.46;93848.13;4978888;28;20547;-79
2022/03/15 03:31:21;;;;;;;1.07;1.07;;;;;;;-5.18;89.62;93780.41;4977494;28;20585;-79
2022/03/15 03:33:49;;;;;;;1.93;1.93;;;;;;;-4.85;88.74;93843.97;4977259;28;20566;-80
2022/03/15 03:36:16;;;;;;;1.00;1.00;;;;;;;-5.20;89.15;93784.47;4973987;28;20573;-79
2022/03/15 03:38:44;;;;;;;1.30;1.23;;;;;;;-4.90;88.68;93831.47;4977531;28;20469;-79
2022/03/15 03:41:11;;;;;;;1.90;1.90;;;;;;;-4.50;89.41;93902.66;4978201;28;20526;-79
2022/03/15 03:43:39;;;;;;;1.23;1.23;;;;;;;-4.68;88.23;93872.50;4976938;28;20494;-80
2022/03/15 03:46:08;;;;;;;1.33;1.33;;;;;;;-4.90;88.48;93833.94;4976875;28;20603;-79
2022/03/15 03:48:37;;;;;;;1.73;1.73;;;;;;;-4.82;89.82;93868.69;4977472;28;20639;-80
2022/03/15 03:51:04;;;;;;;2.53;2.03;;;;;;;-4.50;89.04;93917.47;4977262;28;20284;-80
2022/03/15 03:53:32;;;;;;;2.47;2.37;;;;;;;-5.13;88.95;93810.16;4976708;28;20572;-79
2022/03/15 03:55:59;;;;;;;1.67;1.67;;;;;;;-4.93;90.35;93858.47;4976824;28;20604;-79
2022/03/15 03:58:27;;;;;;;5.10;1.70;;;;;;;-4.97;90.47;93851.78;4976529;28;20618;-79
2022/03/15 04:00:54;;;;;;;1.37;1.37;;;;;;;-5.16;89.85;93832.19;4977149;28;20527;-79
2022/03/15 04:03:24;;;;;;;3.20;2.17;;;;;;;-4.98;89.21;93854.19;4977328;28;20201;-79
2022/03/15 04:05:53;;;;;;;1.87;1.87;;;;;;;-4.72;88.81;93915.88;4977736;28;20204;-78
2022/03/15 04:08:20;;;;;;;2.60;2.60;;;;;;;-4.92;88.24;93865.09;4976722;28;20567;-79
2022/03/15 04:10:48;;;;;;;1.80;1.80;;;;;;;-5.54;88.88;93797.22;4977001;28;20215;-79
2022/03/15 04:13:18;;;;;;;1.50;0.87;;;;;;;-5.47;88.03;93798.28;4977082;28;20196;-79
2022/03/15 04:15:46;;;;;;;2.03;2.00;;;;;;;-5.05;89.59;93895.84;4976564;28;20640;-78
2022/03/15 04:18:14;;;;;;;1.07;1.07;;;;;;;-5.60;89.15;93804.38;4976905;28;20503;-78
2022/03/15 04:20:42;;;;;;;3.50;3.40;;;;;;;-5.40;89.38;93833.78;4977368;28;20230;-79
2022/03/15 04:23:11;;;;;;;4.27;4.10;;;;;;;-5.00;89.79;93891.06;4978100;28;20553;-79
2022/03/15 04:25:39;;;;;;;6.17;5.67;;;;;;;-5.16;89.69;93852.75;4976541;28;20702;-79
2022/03/15 04:28:07;;;;;;;4.63;4.53;;;;;;;-5.00;91.15;93883.69;4976708;28;20591;-79
2022/03/15 04:30:35;;;;;;;8.27;7.53;;;;;;;-4.73;89.60;93906.00;4983826;28;20201;-79
2022/03/15 04:33:02;;;;;;;8.20;7.53;;;;;;;-5.39;89.94;93793.63;4989021;28;20572;-79
2022/03/15 04:35:30;;;;;;;6.63;6.23;;;;;;;-4.95;90.05;93869.88;4989353;28;20527;-79
2022/03/15 04:37:58;;;;;;;4.60;4.20;;;;;;;-5.22;90.69;93840.22;4988534;28;20677;-79
2022/03/15 04:40:27;;;;;;;3.67;2.70;;;;;;;-5.05;89.93;93855.59;4983548;28;20560;-79
2022/03/15 04:42:56;;;;;;;5.33;4.77;;;;;;;-5.27;89.63;93844.13;4980778;28;20441;-79
2022/03/15 04:45:24;;;;;;;7.10;5.67;;;;;;;-5.38;89.54;93839.63;4979061;28;20605;-79
2022/03/15 04:47:51;;;;;;;2.93;2.83;;;;;;;-5.60;89.82;93829.00;4976769;28;20597;-79
2022/03/15 04:50:19;;;;;;;2.63;2.50;;;;;;;-5.77;89.13;93824.25;4976632;28;20472;-79
2022/03/15 04:52:47;;;;;;;3.93;3.17;;;;;;;-5.47;89.93;93874.59;4976674;28;20724;-78
2022/03/15 04:55:14;;;;;;;1.73;1.63;;;;;;;-5.34;89.91;93898.88;4976254;28;20597;-78
2022/03/15 04:57:44;;;;;;;2.60;2.60;;;;;;;-5.49;90.21;93863.84;4968994;28;20565;-79
2022/03/15 05:00:12;;;;;;;3.43;3.33;;;;;;;-5.15;88.91;93913.53;4975809;28;20632;-78
2022/03/15 05:02:41;;;;;;;1.17;1.17;;;;;;;-5.49;88.46;93834.31;4976174;28;20603;-79
2022/03/15 05:05:09;;;;;;;1.33;1.33;;;;;;;-5.11;89.29;93910.41;4975368;28;20484;-78
2022/03/15 05:07:36;;;;;;;2.53;2.43;;;;;;;-5.35;89.64;93876.66;4975662;28;20552;-78
2022/03/15 05:12:50;;;;;;;4.53;4.20;;;;;;;-5.24;91.67;93891.03;4975877;28;20459;-80
2022/03/15 05:15:18;;;;;;;2.67;2.57;;;;;;;-5.41;92.23;93856.75;4975274;28;20201;-79
2022/03/15 05:17:46;;;;;;;10.27;6.20;;;;;;;-5.14;91.93;93900.44;4975909;28;20587;-80
2022/03/15 05:20:14;;;;;;;4.37;4.27;;;;;;;-4.80;91.69;93936.97;4978052;28;20539;-79
2022/03/15 05:22:44;;;;;;;5.50;5.20;;;;;;;-4.76;90.74;93916.56;4975186;28;20268;-80
2022/03/15 05:25:14;;;;;;;3.37;3.27;;;;;;;-5.09;88.56;93844.78;4974971;28;20324;-80
2022/03/15 05:27:44;;;;;;;3.83;3.47;;;;;;;-4.83;87.16;93870.31;4974513;28;20593;-78
2022/03/15 05:30:17;;;;;;;5.50;5.00;;;;;;;-4.90;87.40;93855.28;4974982;28;20660;-79
2022/03/15 05:32:48;;;;;;;2.87;2.77;;;;;;;-4.69;87.47;93874.09;4971334;28;20578;-80
2022/03/15 05:35:17;;;;;;;2.73;2.73;;;;;;;-4.67;87.63;93896.31;4974543;28;20208;-77
2022/03/15 05:37:48;;;;;;;2.60;2.50;;;;;;;-4.88;87.30;93883.28;4974887;28;20635;-79
2022/03/15 05:40:17;;;;;;;1.80;1.80;;;;;;;-5.17;87.60;93846.13;4972453;28;20556;-78
2022/03/15 05:42:48;;;;;;;4.30;4.00;;;;;;;-4.33;87.50;93960.78;4975069;28;20465;-78
2022/03/15 05:45:18;;;;;;;6.03;5.17;;;;;;;-4.36;87.63;93928.66;4974023;28;20229;-79
2022/03/15 05:51:12;;;;;;;5.30;5.00;;;;;;;-4.10;87.86;93968.97;4963210;28;20511;-75
2022/03/15 05:53:40;;;;;;;6.87;6.47;;;;;;;-4.28;87.97;93934.66;4955907;28;20666;-76
2022/03/15 05:56:09;;;;;;;6.97;6.37;;;;;;;-4.47;88.34;93911.81;4956326;28;20678;-77
2022/03/15 05:58:37;;;;;;;4.73;4.60;;;;;;;-4.67;88.98;93855.25;4953655;28;20254;-78
2022/03/15 06:01:06;;;;;;;4.73;4.53;;;;;;;-4.44;88.95;93860.97;4950690;28;20599;-76
2022/03/15 06:03:34;;;;;;;6.43;6.10;;;;;;;-4.06;89.01;93904.16;4950266;28;20638;-77
2022/03/15 06:06:01;;;;;;;4.73;4.63;;;;;;;-4.39;88.82;93857.00;4954511;28;20479;-75
2022/03/15 06:08:30;;;;;;;4.07;3.87;;;;;;;-4.11;88.83;93900.69;4954659;28;20610;-76
2022/03/15 06:10:57;;;;;;;9.33;3.63;;;;;;;-4.51;89.50;93831.97;4954697;28;20654;-78
2022/03/15 06:13:25;;;;;;;4.63;4.40;;;;;;;-3.93;89.31;93912.75;4951524;28;20586;-77
2022/03/15 06:15:52;;;;;;;2.83;2.63;;;;;;;-4.34;89.71;93835.00;4949078;28;20474;-77
2022/03/15 06:18:21;;;;;;;3.17;3.07;;;;;;;-4.29;89.92;93819.53;4953085;28;20207;-77
2022/03/15 06:20:48;;;;;;;4.97;4.73;;;;;;;-3.58;90.04;93914.72;4952493;28;20216;-78
2022/03/15 06:23:18;;;;;;;8.47;7.87;;;;;;;-3.67;87.77;93870.00;4955296;28;20491;-77
2022/03/15 06:25:47;;;;;;;10.23;9.20;;;;;;;-3.16;86.44;93926.69;4957228;28;20635;-78
2022/03/15 06:28:14;;;;;;;12.17;10.97;;;;;;;-3.59;86.04;93840.56;4958630;28;20630;-79
2022/03/15 06:30:44;;;;;;;10.03;7.80;;;;;;;-2.84;87.13;93950.69;4958251;28;20603;-79
2022/03/15 06:33:13;;;;;;;4.67;4.47;;;;;;;-2.77;87.53;93951.69;4956810;28;20560;-78
2022/03/15 06:35:46;;;;;;;6.63;6.13;;;;;;;-3.03;87.24;93921.28;4959196;28;20477;-80
2022/03/15 06:38:14;;;;;;;9.40;8.93;;;;;;;-3.14;87.27;93885.53;4957930;28;20281;-77
2022/03/15 06:40:42;;;;;;;9.73;8.97;;;;;;;-3.23;87.38;93841.66;4957542;28;20654;-78
2022/03/15 06:43:12;;;;;;;9.03;8.13;;;;;;;-2.76;86.13;93924.53;4956946;28;20661;-77
2022/03/15 06:45:41;;;;;;;7.40;6.60;;;;;;;-2.86;86.06;93900.34;4956715;28;20478;-77
2022/03/15 06:48:09;;;;;;;6.37;6.10;;;;;;;-3.12;85.69;93862.56;4956970;28;20599;-78
2022/03/15 06:50:37;;;;;;;7.50;6.90;;;;;;;-2.55;86.28;93939.97;4957843;28;20556;-78
2022/03/15 06:53:06;;;;;;;7.07;6.70;;;;;;;-2.48;86.77;93936.03;4959950;28;20239;-77
2022/03/15 06:55:34;;;;;;;6.90;6.43;;;;;;;-2.23;86.58;93954.84;4959545;28;20270;-76
2022/03/15 06:58:03;;;;;;;7.47;6.97;;;;;;;-2.10;84.60;93969.22;4959306;28;20550;-77
2022/03/15 07:00:30;;;;;;;7.63;7.00;;;;;;;-2.13;85.25;93967.50;4961719;28;20448;-76
2022/03/15 07:03:02;;;;;;;5.60;5.17;;;;;;;-2.06;85.07;93965.16;4959970;28;20666;-76
2022/03/15 07:05:30;;;;;;;6.50;6.00;;;;;;;-2.43;84.62;93892.47;4961834;28;20622;-76
2022/03/15 07:07:58;;;;;;;6.80;6.40;;;;;;;-2.50;84.33;93856.00;4960501;28;20535;-76
2022/03/15 07:10:27;;;;;;;8.60;7.27;;;;;;;-1.95;83.83;93914.28;4958873;28;20569;-78
2022/03/15 07:12:55;;;;;;;7.57;6.87;;;;;;;-2.01;83.27;93887.75;4957472;28;20560;-77
2022/03/15 07:15:23;;;;;;;2.73;2.53;;;;;;;-1.64;81.72;93951.41;4957623;28;20293;-76
2022/03/15 07:17:51;;;;;;;6.43;4.30;;;;;;;-2.04;81.20;93877.78;4957320;28;20573;-76
2022/03/15 07:20:19;;;;;;;4.27;4.07;;;;;;;-1.50;80.82;93939.31;4954280;28;20633;-77
2022/03/15 07:22:46;;;;;;;5.33;5.07;;;;;;;-1.35;80.26;93933.06;4957112;28;20565;-75
2022/03/15 07:25:14;;;;;;;7.23;6.27;;;;;;;-0.96;78.97;93974.47;4956688;28;20652;-77
2022/03/15 07:28:02;;;;;;;7.37;5.90;;;;;;;-1.17;78.52;93915.31;4958030;28;20577;-77
2022/03/15 07:30:30;;;;;;;7.20;6.70;;;;;;;-1.33;77.23;93874.47;4956737;28;20593;-78
2022/03/15 07:32:59;;;;;;;5.33;4.83;;;;;;;-0.97;76.38;93924.03;4957198;28;20500;-77
2022/03/15 07:35:27;;;;;;;7.03;6.63;;;;;;;-0.91;76.50;93929.13;4956198;28;20336;-77
2022/03/15 07:37:56;;;;;;;10.67;8.83;;;;;;;-0.39;76.61;93971.53;4956114;28;20621;-76
2022/03/15 07:40:26;;;;;;;13.67;9.87;;;;;;;-0.88;74.59;93896.91;4952668;28;20204;-77
2022/03/15 07:42:53;;;;;;;14.67;9.93;;;;;;;-0.31;74.36;93958.44;4955365;28;20595;-76
2022/03/15 07:45:23;;;;;;;9.33;8.37;;;;;;;-0.06;75.09;93975.47;4953536;28;20582;-77
2022/03/15 07:47:50;;;;;;;6.67;6.17;;;;;;;0.04;75.17;93961.59;4956076;28;20557;-77
2022/03/15 07:50:19;;;;;;;8.97;7.00;;;;;;;-0.15;75.43;93912.38;4956886;28;20570;-77
2022/03/15 07:52:48;;;;;;;13.97;9.33;;;;;;;-0.24;74.67;93878.31;4959080;28;20458;-76
2022/03/15 07:55:16;;;;;;;15.57;10.27;;;;;;;0.00;73.62;93895.28;4957024;28;20598;-77
2022/03/15 07:57:43;;;;;;;6.63;6.23;;;;;;;0.54;72.13;93984.00;4954429;28;20529;-77
2022/03/15 08:00:11;;;;;;;8.57;7.97;;;;;;;0.18;72.40;93904.69;4956280;28;20585;-76
2022/03/15 08:02:40;;;;;;;8.03;6.87;;;;;;;0.67;72.91;93971.81;4956220;28;20651;-76
2022/03/15 08:05:09;;;;;;;14.40;8.90;;;;;;;0.50;72.47;93920.13;4956365;28;20205;-75
2022/03/15 08:07:37;;;;;;;13.47;8.50;;;;;;;0.47;71.16;93892.72;4955462;28;20575;-76
2022/03/15 08:10:06;;;;;;;11.87;10.67;;;;;;;1.08;70.48;93969.09;4956378;28;20673;-76
2022/03/15 08:12:34;;;;;;;9.57;8.87;;;;;;;0.92;70.56;93915.78;4955474;28;20478;-77
2022/03/15 08:15:01;;;;;;;17.70;10.23;;;;;;;1.43;70.42;93970.41;4955418;28;20513;-77
2022/03/15 08:17:29;;;;;;;11.87;9.30;;;;;;;1.59;69.05;93968.94;4955627;28;20577;-76
2022/03/15 08:20:00;;;;;;;14.33;7.83;;;;;;;1.84;68.67;93980.06;4955596;28;20649;-75
2022/03/15 08:22:28;;;;;;;9.97;7.87;;;;;;;1.88;67.89;93971.81;4954585;28;20592;-76
2022/03/15 08:24:56;;;;;;;8.30;7.50;;;;;;;1.63;66.36;93916.69;4955889;28;20587;-75
2022/03/15 08:27:23;;;;;;;9.27;8.17;;;;;;;2.29;66.15;93999.69;4956008;28;20584;-76
2022/03/15 08:29:51;;;;;;;7.83;6.70;;;;;;;1.96;65.71;93917.91;4956016;28;20493;-76
2022/03/15 08:32:18;;;;;;;8.70;7.20;;;;;;;1.99;64.75;93898.00;4955238;28;20483;-77
2022/03/15 08:34:45;;;;;;;7.67;6.73;;;;;;;2.55;63.76;93987.47;4955573;28;20515;-77
2022/03/15 08:37:14;;;;;;;9.47;6.07;;;;;;;2.78;64.52;93993.50;4956006;28;20254;-77
2022/03/15 08:39:42;;;;;;;5.53;5.13;;;;;;;2.78;63.53;93973.53;4936739;28;20573;-77
2022/03/15 08:42:09;;;;;;;7.13;4.13;;;;;;;2.37;61.29;93911.66;4943601;28;20583;-78
2022/03/15 08:44:37;;;;;;;4.50;3.83;;;;;;;2.77;60.62;93964.38;4957701;28;20215;-79
2022/03/15 08:47:05;;;;;;;4.67;4.27;;;;;;;2.56;60.15;93914.31;4955428;28;20556;-80
2022/03/15 08:49:32;;;;;;;8.10;5.20;;;;;;;2.57;59.72;93913.50;4956651;28;20524;-79
2022/03/15 08:52:00;;;;;;;3.60;3.27;;;;;;;3.10;60.03;93973.81;4956380;28;20500;-78
2022/03/15 08:54:30;;;;;;;10.53;5.13;;;;;;;2.78;58.77;93913.66;4956621;28;20557;-78
2022/03/15 08:56:58;;;;;;;3.87;3.30;;;;;;;2.97;57.47;93932.09;4955859;28;20596;-78
2022/03/15 08:59:25;;;;;;;13.23;5.67;;;;;;;3.29;57.14;93970.59;4958534;28;20570;-78
2022/03/15 09:01:53;;;;;;;6.30;5.80;;;;;;;3.19;56.29;93919.75;4956433;28;20188;-78
2022/03/15 09:04:20;;;;;;;4.47;4.17;;;;;;;3.28;56.40;93901.47;4956890;28;20588;-77
2022/03/15 09:06:49;;;;;;;5.63;5.17;;;;;;;3.58;55.55;93920.78;4956527;28;20437;-77
2022/03/15 09:09:18;;;;;;;8.70;6.97;;;;;;;3.92;55.33;93942.59;4956846;28;20470;-79
2022/03/15 09:11:47;;;;;;;7.77;7.03;;;;;;;4.29;55.05;93970.19;4956174;28;20600;-77
2022/03/15 09:14:15;;;;;;;14.80;8.60;;;;;;;4.50;54.90;93983.63;4956285;28;20588;-78
2022/03/15 09:16:43;;;;;;;16.20;9.33;;;;;;;4.66;54.45;93974.44;4956186;28;20595;-76
2022/03/15 09:19:11;;;;;;;13.20;9.83;;;;;;;4.61;54.28;93943.59;4956303;28;20572;-76
2022/03/15 09:21:39;;;;;;;22.77;11.20;;;;;;;4.53;55.13;93886.00;4956292;28;20239;-74
2022/03/15 09:24:07;;;;;;;20.83;8.40;;;;;;;4.80;56.27;93896.84;4956597;28;20523;-74
2022/03/15 09:26:36;;;;;;;22.27;11.37;;;;;;;5.30;56.37;93934.34;4957042;28;20219;-74
2022/03/15 09:29:05;;;;;;;16.53;9.63;;;;;;;5.16;53.72;93901.81;4955869;28;20298;-75
2022/03/15 09:31:32;;;;;;;12.43;7.50;;;;;;;5.40;52.57;93916.81;4954578;28;20607;-74
2022/03/15 09:34:00;;;;;;;17.27;7.70;;;;;;;5.69;52.27;93924.22;4955312;28;20588;-74
2022/03/15 09:36:28;;;;;;;12.80;7.60;;;;;;;5.98;49.98;93943.38;4937294;28;20227;-75
2022/03/15 09:38:56;;;;;;;13.30;8.57;;;;;;;6.16;47.98;93965.88;4954523;28;20529;-74
2022/03/15 09:41:32;;;;;;;18.90;8.97;;;;;;;6.28;46.49;93954.97;4955161;28;20662;-76
2022/03/15 09:44:01;;;;;;;19.00;9.40;;;;;;;6.61;42.67;94003.31;4952709;28;20478;-75
2022/03/15 09:46:30;;;;;;;34.97;11.53;;;;;;;6.64;39.45;93992.44;4955761;28;20575;-74
2022/03/15 09:49:00;;;;;;;8.83;6.57;;;;;;;6.81;36.22;94004.88;4955648;28;20693;-73
2022/03/15 09:51:32;;;;;;;5.97;4.90;;;;;;;7.02;35.70;93999.72;4955225;28;20552;-75
2022/03/15 09:54:00;;;;;;;5.23;4.83;;;;;;;7.16;34.93;93999.59;4955834;28;20583;-74
2022/03/15 09:56:29;;;;;;;29.23;15.03;;;;;;;7.35;34.02;94022.06;4955403;28;20583;-74
2022/03/15 09:58:56;;;;;;;4.10;3.10;;;;;;;7.37;33.59;94010.34;4959149;28;20259;-74
2022/03/15 10:01:23;;;;;;;3.13;2.93;;;;;;;7.50;33.63;94008.53;4959003;28;20188;-74
2022/03/15 10:03:52;;;;;;;4.67;4.27;;;;;;;7.58;34.53;94005.94;4959244;28;20485;-74
2022/03/15 10:06:21;;;;;;;19.73;13.60;;;;;;;7.40;33.39;93969.22;4959113;28;20583;-74
2022/03/15 10:08:48;;;;;;;3.70;3.23;;;;;;;7.28;32.10;93939.16;4959274;28;20676;-74
2022/03/15 10:11:18;;;;;;;3.20;3.00;;;;;;;7.56;33.00;93932.19;4959124;28;20560;-74
2022/03/15 10:13:46;;;;;;;2.57;2.47;;;;;;;7.80;34.10;93916.84;4958640;28;20490;-73
2022/03/15 10:16:14;;;;;;;7.53;3.80;;;;;;;8.39;33.83;93965.69;4959230;28;20563;-73
2022/03/15 10:18:54;;;;;;;5.80;3.50;;;;;;;8.40;32.67;93940.44;4956738;28;20220;-72
2022/03/15 10:21:25;;;;;;;6.87;5.17;;;;;;;8.73;33.00;93960.13;4958302;28;20521;-77
2022/03/15 10:23:55;;;;;;;6.50;5.27;;;;;;;8.90;33.69;93929.66;4957223;28;20196;-74
2022/03/15 10:26:24;;;;;;;10.40;3.20;;;;;;;10.07;31.46;93917.50;4956960;28;20596;-76
2022/03/15 10:28:53;;;;;;;3.43;3.13;;;;;;;11.90;28.02;93959.66;4957601;28;20568;-76
2022/03/15 10:31:23;;;;;;;2.27;1.83;;;;;;;12.23;25.96;93935.13;4959458;28;20583;-77
2022/03/15 10:33:52;;;;;;;7.10;4.38;;;;;;;14.24;24.78;94013.47;4959741;28;20548;-76
2022/03/15 10:36:22;;;;;;;5.50;3.35;;;;;;;15.05;23.36;93961.31;4958203;28;20589;-76
2022/03/15 10:38:51;;;;;;;5.85;3.38;;;;;;;15.54;21.80;93942.47;4958663;28;20219;-77
2022/03/15 10:41:28;;;;;;;2.70;2.50;;;;;;;16.90;21.21;93979.09;4958244;28;20513;-77
2022/03/15 10:43:57;;;;;;;5.13;3.63;;;;;;;17.20;20.66;93976.03;4958068;28;20490;-75
2022/03/15 10:46:27;;;;;;;4.55;3.90;;;;;;;18.73;20.47;94024.81;4957900;28;20608;-76
2022/03/15 10:49:03;;;;;;;17.98;6.95;;;;;;;19.19;20.14;93999.34;4958233;28;20581;-75
2022/03/15 10:51:32;;;;;;;12.13;6.45;;;;;;;20.27;19.03;94001.84;4958122;28;20596;-77
2022/03/15 10:54:12;;;;;;;2.75;2.65;;;;;;;20.78;18.43;94004.88;4957563;28;20314;-77
2022/03/15 10:56:40;;;;;;;4.45;4.05;;;;;;;19.83;18.08;93981.25;4959185;28;20560;-77
2022/03/15 10:59:11;;;;;;;8.70;6.03;;;;;;;19.70;19.01;93996.53;4956295;28;20576;-76
2022/03/15 11:01:40;;;;;;;10.50;6.22;;;;;;;19.82;18.85;94006.13;4957106;28;20204;-78
2022/03/15 11:04:09;;;;;;;2.85;2.70;;;;;;;18.88;19.68;93930.97;4957682;28;20596;-77
2022/03/15 11:06:40;;;;;;;4.15;3.85;;;;;;;19.61;19.47;93983.38;4955997;28;20607;-79
2022/03/15 11:09:24;;;;;;;2.38;2.22;;;;;;;18.48;20.03;93947.56;4959010;28;20473;-80
2022/03/15 11:11:58;;;;;;;2.65;2.55;;;;;;;18.47;19.93;93892.19;4958376;28;20587;-79
2022/03/15 11:14:39;;;;;;;4.88;4.57;;;;;;;18.53;20.64;93932.84;4959018;28;20568;-78
2022/03/15 11:17:12;;;;;;;2.80;2.60;;;;;;;18.13;20.18;93905.91;4957914;28;20262;-78
2022/03/15 11:19:45;;;;;;;3.92;3.63;;;;;;;18.11;20.03;93872.72;4957555;28;20548;-77
2022/03/15 11:22:15;;;;;;;3.17;2.58;;;;;;;18.86;20.83;93896.97;4957342;28;20600;-77
2022/03/15 11:24:46;;;;;;;3.05;2.85;;;;;;;19.25;21.34;93899.06;4957574;28;20583;-76
2022/03/15 11:27:17;;;;;;;8.95;6.28;;;;;;;19.25;20.41;93920.41;4958968;28;20669;-76
2022/03/15 11:29:45;;;;;;;15.00;9.05;;;;;;;18.80;20.00;93881.94;4957742;28;20566;-77
2022/03/15 11:32:18;;;;;;;29.85;19.65;;;;;;;17.51;21.03;93857.91;4957932;28;20274;-78
2022/03/15 11:34:47;;;;;;;18.17;11.95;;;;;;;17.21;21.45;93830.38;4957226;28;20200;-77
2022/03/15 11:37:16;;;;;;;2.80;2.70;;;;;;;16.65;20.70;93896.88;4957860;28;20497;-78
2022/03/15 11:39:44;;;;;;;3.67;2.63;;;;;;;16.23;19.90;93853.66;4957915;28;20545;-78
2022/03/15 11:42:13;;;;;;;2.50;2.30;;;;;;;16.54;19.62;93906.72;4958174;28;20554;-77
2022/03/15 11:45:03;;;;;;;2.17;2.08;;;;;;;16.36;20.29;93912.63;4958018;28;20192;-76
2022/03/15 11:47:41;;;;;;;3.50;3.00;;;;;;;16.42;20.84;93851.13;4955258;28;20200;-74